This is the latest recevied weather packets stored in our database for station/object VK4JLM-1. If no packets are shown the sender has not sent any weather packets the latest 10 day(s).
| Time | Temp. | Humidity | Pressure | Rain* | Wind** | Luminosity | Snow |
|---|---|---|---|---|---|---|---|
| 1777712446 | 19.44° C | 96% | 1023.1 hPa | 0 mm | - | - | - |
| 1777711366 | 20° C | 94% | 1023 hPa | 0 mm | - | - | - |
| 1777710196 | 20° C | 93% | 1023.1 hPa | 0 mm | - | - | - |
| 1777709021 | 20.56° C | 91% | 1022.8 hPa | 0 mm | - | - | - |
| 1777707911 | 21.11° C | 87% | 1022.8 hPa | 0 mm | - | - | - |
| 1777705621 | 21.67° C | 86% | 1022.4 hPa | 0 mm | - | - | - |
| 1777704486 | 22.22° C | 87% | 1022.1 hPa | 0 mm | - | - | - |
| 1777703430 | 23.33° C | 83% | 1022 hPa | 0 mm | - | - | - |
| 1777702461 | 22.78° C | 84% | 1022.1 hPa | 0 mm | - | - | - |
| 1777701430 | 22.78° C | 82% | 1022.1 hPa | 0 mm | - | - | - |
| 1777700381 | 23.33° C | 82% | 1022 hPa | 0 mm | - | - | - |
| 1777699246 | 23.33° C | 79% | 1022.1 hPa | 0 mm | - | - | - |
| 1777698156 | 23.89° C | 81% | 1022.3 hPa | 0 mm | - | - | - |
| 1777697176 | 26.67° C | 71% | 1022.2 hPa | 0.51 mm | - | - | - |
| 1777696090 | 28.33° C | 64% | 1022.2 hPa | 0.51 mm | - | - | - |
| 1777694930 | 24.44° C | 79% | 1022.3 hPa | 0.51 mm | - | - | - |
| 1777693756 | 23.33° C | 81% | 1022.4 hPa | 0 mm | - | - | - |
| 1777692616 | 25° C | 77% | 1022.2 hPa | 0 mm | - | - | - |
| 1777690270 | 24.44° C | 76% | 1022.7 hPa | 0 mm | - | - | - |
| 1777689251 | 27.22° C | 66% | 1022.8 hPa | 0 mm | - | - | - |
| 1777687276 | 24.44° C | 73% | 1023.5 hPa | 0 mm | - | - | - |
| 1777686290 | 28.89° C | 59% | 1023.4 hPa | 0 mm | - | - | - |
| 1777685236 | 31.67° C | 54% | 1023.5 hPa | 0 mm | - | - | - |
| 1777684036 | 29.44° C | 59% | 1023.8 hPa | 0 mm | - | - | - |
| 1777683041 | 29.44° C | 59% | 1024.1 hPa | 0 mm | - | - | - |
* Rain latest hour (hover to see other rain measurements)
** Current wind speed in m/s (hover to see current wind gust speed)